ROMMA est une association bénévole à but non lucratif. Votre soutien est indispensable : ADHERER à ROMMA ou FAIRE un DON

Granges-lès-Beaumont - (26, Drôme)

Drôme des Collines (155 m)   Longitude: 04°58'E   Latitude: 45°03'N Station partenaire n°123
 

Détail journalier du     <<     >>

Température Precipitation Humidité Pression Vent Dir Rafale Dir. rafale Ensol.
Heure (°C) (mm) (%) (hPa) (km/h) (km/h) (min)
01:00 11.107810162NNE13NO0
02:00 10.707810168NNO16NNO0
03:00 9.907910156NE15ENE0
04:00 9.008210155NNE13N0
05:00 8.608310153N11NO0
06:00 8.608310147N19NNO0
07:00 8.608310156N15NNO0
08:00 9.208410155NNO11NNO0
09:00 11.407910156N19NO0
10:00 14.0070101512NNE23N50
11:00 16.5064101511N21NNE60
12:00 18.406010159NNE26NNE60
13:00 19.7054101412NE26N60
14:00 20.205210148N21NNE60
15:00 21.804910139NNE24ONO60
16:00 22.204510138N19NNE60
17:00 22.103510129NNE29N60
18:00 22.003910129NNE18NNE60
19:00 20.804210128N19NE60
20:00 18.804910125N13N30
21:00 15.406010129NNO15NO0
22:00 13.806210139NNO15NO0
23:00 12.107210133NNE6NNE0
minuit 10.607610143NO10NO0

Graphique du 01-05-2019

 

Serveur OMMA